Time;durP1;ratioP1;P1;durP2;ratioP2;P2;SDS_P1;SDS_P2;PMS_P1;PMS_P2;Temp;Humidity;BMP_temperature;BMP_pressure;BME280_temperature;BME280_humidity;BME280_pressure;Samples;Min_cycle;Max_cycle;Signal;HPM_P1;HPM_P2
2021/03/13 00:01:19;;;;;;;7.17;3.22;;;;;;;-5.14;49.36;101628.20;1705804;84;21376;-59
2021/03/13 00:03:53;;;;;;;6.80;2.77;;;;;;;-5.14;49.30;101629.47;1706191;84;21164;-60
2021/03/13 00:06:26;;;;;;;7.55;3.00;;;;;;;-5.17;49.61;101614.58;1705961;84;21296;-60
2021/03/13 00:08:59;;;;;;;6.53;2.62;;;;;;;-5.19;49.74;101593.31;1706820;84;21252;-60
2021/03/13 00:11:33;;;;;;;7.83;3.08;;;;;;;-5.23;49.95;101598.84;1706153;83;22044;-59
2021/03/13 00:14:06;;;;;;;12.63;3.00;;;;;;;-5.24;50.28;101600.99;1705870;84;21228;-58
2021/03/13 00:16:40;;;;;;;5.97;2.80;;;;;;;-5.21;50.54;101618.00;1705419;84;21826;-59
2021/03/13 00:19:15;;;;;;;5.83;2.00;;;;;;;-5.16;50.48;101608.63;1707068;84;21177;-59
2021/03/13 00:21:48;;;;;;;5.42;2.92;;;;;;;-5.14;50.48;101608.19;1705576;84;21280;-61
2021/03/13 00:24:21;;;;;;;11.10;3.47;;;;;;;-5.11;50.57;101609.47;1706052;84;21393;-58
2021/03/13 00:26:55;;;;;;;6.67;2.55;;;;;;;-5.10;50.58;101606.04;1705101;84;21149;-58
2021/03/13 00:29:29;;;;;;;8.33;2.90;;;;;;;-5.09;50.63;101603.50;1706873;84;21166;-58
2021/03/13 00:32:03;;;;;;;7.10;3.00;;;;;;;-5.12;50.81;101603.92;1706566;84;21185;-59
2021/03/13 00:34:36;;;;;;;;;;;;;;;-5.15;51.01;101598.83;1708489;84;21296;-58
2021/03/13 00:37:08;;;;;;;9.48;2.92;;;;;;;-5.19;51.18;101609.91;1705485;84;20319;-58
2021/03/13 00:39:43;;;;;;;12.28;3.05;;;;;;;-5.29;51.38;101591.22;1705509;83;21343;-57
2021/03/13 00:42:16;;;;;;;12.03;3.02;;;;;;;-5.36;51.66;101586.98;1705727;84;21300;-57
2021/03/13 00:44:49;;;;;;;8.80;3.10;;;;;;;-5.43;51.94;101590.83;1706234;84;21280;-57
2021/03/13 00:47:22;;;;;;;9.05;2.67;;;;;;;-5.52;52.18;101584.06;1705208;84;21339;-61
2021/03/13 00:49:55;;;;;;;12.15;3.35;;;;;;;-5.50;52.56;101583.63;1707084;84;21181;-58
2021/03/13 00:52:29;;;;;;;7.40;2.98;;;;;;;-5.51;52.64;101571.29;1705502;83;21355;-58
2021/03/13 00:55:05;;;;;;;8.20;3.30;;;;;;;-5.49;52.77;101572.55;1706249;84;21342;-59
2021/03/13 00:57:38;;;;;;;6.83;2.72;;;;;;;-5.48;52.95;101579.36;1705148;84;21188;-59
2021/03/13 01:00:14;;;;;;;5.78;2.20;;;;;;;-5.46;53.03;101571.27;1707095;84;21279;-59
2021/03/13 01:02:48;;;;;;;8.10;3.25;;;;;;;-5.43;53.06;101567.86;1706756;84;21356;-59
2021/03/13 01:05:21;;;;;;;9.00;3.20;;;;;;;-5.41;53.12;101572.11;1703790;83;22096;-59
2021/03/13 01:07:54;;;;;;;10.70;3.47;;;;;;;-5.40;53.15;101570.00;1694454;84;21370;-61
2021/03/13 01:10:37;;;;;;;7.17;2.90;;;;;;;-5.39;53.28;101564.02;1689780;84;21724;-60
2021/03/13 01:13:10;;;;;;;4.35;2.55;;;;;;;-5.36;53.40;101567.84;1682467;85;21267;-59
2021/03/13 01:15:45;;;;;;;5.55;2.98;;;;;;;-5.38;53.48;101567.43;1682343;85;21366;-61
2021/03/13 01:18:21;;;;;;;7.17;3.40;;;;;;;-5.37;53.72;101564.03;1683796;85;21284;-59
2021/03/13 01:20:55;;;;;;;9.63;3.40;;;;;;;-5.34;53.84;101558.48;1681422;84;21292;-60
2021/03/13 01:23:30;;;;;;;5.40;2.80;;;;;;;-5.31;54.04;101564.00;1678003;85;21565;-60
2021/03/13 01:26:03;;;;;;;3.70;1.90;;;;;;;-5.32;54.20;101556.77;1680837;85;21480;-59
2021/03/13 01:28:36;;;;;;;4.05;2.55;;;;;;;-5.33;54.33;101553.81;1682074;85;21839;-59
2021/03/13 01:31:11;;;;;;;5.85;2.75;;;;;;;-5.34;54.51;101559.75;1680207;85;21871;-59
2021/03/13 01:33:44;;;;;;;;;;;;;;;-5.32;54.60;101558.04;1684867;85;21208;-59
2021/03/13 01:36:17;;;;;;;5.60;3.35;;;;;;;-5.30;54.58;101555.05;1681198;85;20241;-58
2021/03/13 01:38:51;;;;;;;5.53;2.60;;;;;;;-5.29;54.75;101558.04;1682417;85;21335;-58
2021/03/13 01:41:25;;;;;;;9.90;3.50;;;;;;;-5.30;54.87;101556.33;1682404;85;21221;-59
2021/03/13 01:43:58;;;;;;;6.92;2.72;;;;;;;-5.30;54.96;101555.50;1682082;85;21704;-58
2021/03/13 01:46:31;;;;;;;13.45;3.87;;;;;;;-5.33;55.14;101555.50;1680786;85;21172;-59
2021/03/13 01:49:07;;;;;;;9.15;2.77;;;;;;;-5.32;55.26;101560.59;1684262;85;21791;-60
2021/03/13 01:51:40;;;;;;;5.58;2.80;;;;;;;-5.32;55.30;101569.95;1685760;85;21204;-59
2021/03/13 01:54:14;;;;;;;5.35;2.70;;;;;;;-5.32;55.40;101566.12;1685218;84;21331;-58
2021/03/13 01:56:50;;;;;;;6.50;3.30;;;;;;;-5.30;55.46;101568.27;1686057;85;21315;-59
2021/03/13 01:59:24;;;;;;;11.35;3.67;;;;;;;-5.28;55.54;101572.94;1685946;85;21299;-60
2021/03/13 02:01:58;;;;;;;10.45;3.30;;;;;;;-5.26;55.53;101575.91;1685790;85;21245;-59
2021/03/13 02:04:32;;;;;;;7.25;3.15;;;;;;;-5.20;55.59;101572.03;1686155;85;21335;-58
2021/03/13 02:07:25;;;;;;;11.55;4.50;;;;;;;-5.13;55.52;101574.12;1686183;85;21304;-60
2021/03/13 02:10:18;;;;;;;10.40;4.00;;;;;;;-5.10;55.42;101567.74;1686478;85;21803;-59
2021/03/13 02:13:25;;;;;;;11.93;4.45;;;;;;;-5.09;55.46;101571.59;1685719;85;21295;-58
2021/03/13 02:16:54;;;;;;;8.83;3.62;;;;;;;-5.10;55.43;101579.23;1685455;85;21302;-59
2021/03/13 02:20:06;;;;;;;11.43;3.10;;;;;;;-5.13;55.59;101580.09;1685962;85;22113;-59
2021/03/13 02:22:41;;;;;;;8.20;3.08;;;;;;;-5.16;55.83;101577.58;1685476;85;21339;-57
2021/03/13 02:25:39;;;;;;;8.05;2.87;;;;;;;-5.15;56.11;101580.53;1684769;85;21241;-58
2021/03/13 02:28:49;;;;;;;6.60;2.72;;;;;;;-5.14;56.24;101572.03;1685041;85;21208;-58
2021/03/13 02:31:23;;;;;;;8.33;3.17;;;;;;;-5.13;56.24;101579.23;1686399;85;21752;-57
2021/03/13 02:33:58;;;;;;;9.20;3.40;;;;;;;-5.12;56.41;101575.42;1685254;85;21331;-58
2021/03/13 02:36:32;;;;;;;6.20;3.12;;;;;;;-5.08;56.45;101566.88;1680954;85;21739;-58
2021/03/13 02:39:10;;;;;;;7.08;3.17;;;;;;;-5.07;56.50;101568.59;1684888;85;21850;-58
2021/03/13 02:41:48;;;;;;;7.10;3.42;;;;;;;-5.04;56.55;101569.84;1684129;85;21351;-59
2021/03/13 02:44:21;;;;;;;8.58;3.37;;;;;;;-5.02;56.53;101567.30;1684904;85;21201;-59
2021/03/13 02:47:00;;;;;;;6.85;2.60;;;;;;;-5.01;56.57;101574.94;1684547;85;21288;-59
2021/03/13 02:49:36;;;;;;;7.92;3.60;;;;;;;-4.98;56.62;101562.58;1684842;85;21177;-60
2021/03/13 02:52:11;;;;;;;13.50;3.12;;;;;;;-4.93;56.71;101564.69;1684223;84;21169;-60
2021/03/13 02:54:47;;;;;;;;;;;;;;;-4.83;56.71;101567.62;1687580;85;21377;-57
2021/03/13 02:57:21;;;;;;;12.18;4.42;;;;;;;-4.74;56.55;101576.52;1685106;85;20198;-58
2021/03/13 02:59:54;;;;;;;9.15;3.65;;;;;;;-4.74;56.47;101578.21;1658138;85;21189;-58
2021/03/13 03:02:29;;;;;;;16.00;4.58;;;;;;;-4.75;56.54;101574.80;1686046;85;21304;-59
2021/03/13 03:05:05;;;;;;;7.70;2.83;;;;;;;-4.74;56.60;101573.10;1685780;84;21173;-58
2021/03/13 03:07:38;;;;;;;8.20;3.20;;;;;;;-4.71;56.70;101574.37;1684763;85;21283;-58
2021/03/13 03:10:15;;;;;;;11.30;3.60;;;;;;;-4.70;56.72;101567.14;1686308;85;21287;-58
2021/03/13 03:12:49;;;;;;;13.60;4.30;;;;;;;-4.70;56.74;101562.03;1686219;85;21268;-58
2021/03/13 03:15:25;;;;;;;10.40;3.50;;;;;;;-4.69;56.90;101563.28;1686247;85;21161;-59
2021/03/13 03:18:01;;;;;;;7.40;3.15;;;;;;;-4.68;56.93;101567.97;1685036;85;21201;-60
2021/03/13 03:20:35;;;;;;;7.87;3.27;;;;;;;-4.66;57.03;101564.97;1685835;85;21288;-58
2021/03/13 03:23:08;;;;;;;6.22;3.00;;;;;;;-4.61;57.12;101560.69;1685936;85;21283;-58
2021/03/13 03:25:42;;;;;;;13.25;3.62;;;;;;;-4.57;57.03;101564.91;1686160;85;21743;-59
2021/03/13 03:28:18;;;;;;;9.28;3.33;;;;;;;-4.57;57.02;101563.21;1686349;85;21157;-58
2021/03/13 03:30:54;;;;;;;7.65;3.65;;;;;;;-4.56;57.08;101566.17;1684866;85;21811;-58
2021/03/13 03:33:27;;;;;;;8.15;3.27;;;;;;;-4.55;57.26;101570.44;1686063;85;21208;-59
2021/03/13 03:36:02;;;;;;;12.43;3.67;;;;;;;-4.52;57.27;101564.45;1684300;85;21176;-58
2021/03/13 03:38:36;;;;;;;9.28;3.87;;;;;;;-4.54;57.30;101555.95;1686119;85;21324;-58
2021/03/13 03:41:11;;;;;;;7.05;3.42;;;;;;;-4.51;57.47;101561.88;1686259;85;21280;-58
2021/03/13 03:43:46;;;;;;;9.03;3.95;;;;;;;-4.42;57.52;101565.64;1686072;85;21161;-58
2021/03/13 03:46:20;;;;;;;9.63;3.55;;;;;;;-4.32;57.44;101571.12;1686363;85;21279;-58
2021/03/13 03:48:54;;;;;;;6.95;3.58;;;;;;;-4.24;57.29;101571.06;1686286;85;21704;-59
2021/03/13 03:51:28;;;;;;;12.63;3.80;;;;;;;-4.17;57.27;101574.84;1684252;85;21822;-60
2021/03/13 03:54:08;;;;;;;17.75;3.70;;;;;;;-4.13;57.22;101572.67;1657984;85;21664;-59
2021/03/13 03:56:42;;;;;;;13.75;4.12;;;;;;;-4.14;57.11;101558.63;1686049;85;21806;-60
2021/03/13 03:59:20;;;;;;;6.10;3.67;;;;;;;-4.16;57.26;101564.20;1686154;85;21240;-60
2021/03/13 04:01:53;;;;;;;10.18;3.60;;;;;;;-4.14;57.36;101561.19;1686384;85;21315;-60
2021/03/13 04:04:27;;;;;;;6.25;3.10;;;;;;;-4.15;57.45;101559.48;1685890;85;21306;-61
2021/03/13 04:07:00;;;;;;;7.03;2.98;;;;;;;-4.12;57.58;101573.53;1659242;85;21161;-60
2021/03/13 04:09:34;;;;;;;10.40;4.15;;;;;;;-4.08;57.63;101559.84;1685859;85;21307;-59
2021/03/13 04:12:09;;;;;;;7.65;3.75;;;;;;;-4.03;57.66;101555.97;1686157;85;21327;-60
2021/03/13 04:14:42;;;;;;;10.85;4.25;;;;;;;-4.02;57.57;101566.63;1685851;85;21204;-59
2021/03/13 04:17:15;;;;;;;9.93;3.75;;;;;;;-4.04;57.68;101560.27;1685655;85;21177;-60
2021/03/13 04:19:48;;;;;;;13.13;4.47;;;;;;;-4.03;57.71;101568.75;1686116;85;21854;-60
2021/03/13 04:22:24;;;;;;;12.78;3.98;;;;;;;-4.07;57.74;101570.51;1686390;85;21311;-60
2021/03/13 04:24:56;;;;;;;9.18;3.47;;;;;;;-4.06;57.79;101564.97;1685929;85;21180;-59
2021/03/13 04:27:30;;;;;;;9.35;3.10;;;;;;;-4.01;57.82;101566.61;1685953;83;21322;-60
2021/03/13 04:30:05;;;;;;;13.65;4.08;;;;;;;-3.94;57.81;101572.54;1682174;85;21302;-60
2021/03/13 04:32:38;;;;;;;13.80;4.53;;;;;;;-3.85;57.59;101572.03;1688716;83;21276;-59
2021/03/13 04:35:12;;;;;;;11.43;4.10;;;;;;;-3.81;57.43;101572.41;1698723;84;21873;-58
2021/03/13 04:37:45;;;;;;;10.93;4.20;;;;;;;-3.76;57.33;101569.80;1697762;84;21299;-59
2021/03/13 04:40:18;;;;;;;8.17;3.43;;;;;;;-3.69;57.18;101571.44;1698808;84;21294;-59
2021/03/13 04:42:51;;;;;;;9.75;4.35;;;;;;;-3.54;57.05;101570.87;1670054;84;21468;-59
2021/03/13 04:45:27;;;;;;;11.15;3.75;;;;;;;-3.28;56.39;101574.84;1702450;84;21761;-60
2021/03/13 04:48:00;;;;;;;10.58;4.50;;;;;;;-3.10;56.11;101581.88;1700987;84;21703;-59
2021/03/13 04:50:34;;;;;;;9.78;3.70;;;;;;;-3.05;55.57;101581.39;1672909;84;21330;-58
2021/03/13 04:53:08;;;;;;;8.33;3.92;;;;;;;-3.06;55.49;101576.30;1702589;83;21291;-58
2021/03/13 04:55:42;;;;;;;7.83;4.03;;;;;;;-3.07;55.32;101587.40;1702398;84;21325;-60
2021/03/13 04:58:15;;;;;;;7.83;3.90;;;;;;;-3.10;55.31;101594.69;1702754;84;21346;-60
2021/03/13 05:00:48;;;;;;;8.50;3.50;;;;;;;-3.09;55.31;101588.70;1702802;84;21294;-60
2021/03/13 05:03:23;;;;;;;11.93;4.72;;;;;;;-3.09;55.15;101594.25;1710253;84;21268;-61
2021/03/13 05:05:56;;;;;;;9.45;3.92;;;;;;;-3.17;55.18;101590.92;1692166;85;21283;-58
2021/03/13 05:08:29;;;;;;;9.77;4.00;;;;;;;-3.27;55.26;101596.58;1691784;85;21216;-58
2021/03/13 05:11:02;;;;;;;12.63;4.28;;;;;;;-3.34;55.40;101592.39;1692195;85;21232;-61
2021/03/13 05:13:36;;;;;;;8.25;3.70;;;;;;;-3.38;55.65;101597.56;1694395;84;21762;-60
2021/03/13 05:16:09;;;;;;;9.65;4.20;;;;;;;-3.39;55.53;101617.20;1692223;85;21322;-59
2021/03/13 05:18:43;;;;;;;7.30;3.30;;;;;;;-3.46;55.58;101634.34;1691814;85;22209;-59
2021/03/13 05:21:16;;;;;;;9.60;5.00;;;;;;;-3.47;55.90;101625.41;1691982;85;21349;-60
2021/03/13 05:23:49;;;;;;;22.80;5.22;;;;;;;-3.45;56.04;101599.35;1692679;85;21260;-59
2021/03/13 05:26:22;;;;;;;12.33;4.42;;;;;;;-3.35;56.09;101606.50;1692255;85;21203;-61
2021/03/13 05:28:55;;;;;;;16.20;6.75;;;;;;;-3.28;55.87;101626.91;1699462;84;21231;-60
2021/03/13 05:31:28;;;;;;;6.90;3.67;;;;;;;-3.27;55.74;101614.97;1692036;85;21184;-60
2021/03/13 05:34:03;;;;;;;11.05;5.50;;;;;;;-3.23;55.75;101611.50;1692112;85;21344;-59
2021/03/13 05:36:36;;;;;;;7.92;4.30;;;;;;;-3.18;55.75;101614.44;1691878;85;21295;-59
2021/03/13 05:39:09;;;;;;;14.35;6.08;;;;;;;-3.09;55.42;101621.16;1691870;85;21295;-59
2021/03/13 05:41:43;;;;;;;13.32;5.05;;;;;;;-3.07;55.39;101619.41;1691750;85;21351;-60
2021/03/13 05:44:16;;;;;;;14.50;5.83;;;;;;;-3.00;55.48;101622.32;1692418;85;21184;-60
2021/03/13 05:46:49;;;;;;;13.80;5.17;;;;;;;-2.84;55.26;101619.98;1692100;85;21283;-62
2021/03/13 05:49:23;;;;;;;14.38;4.65;;;;;;;-2.72;54.88;101624.53;1691812;85;21335;-56
2021/03/13 05:51:56;;;;;;;9.55;4.47;;;;;;;-2.64;54.62;101624.44;1691797;85;21299;-56
2021/03/13 05:54:29;;;;;;;7.70;3.27;;;;;;;-2.55;54.41;101625.59;1691308;83;21204;-56
2021/03/13 05:57:04;;;;;;;11.53;4.03;;;;;;;-2.46;53.84;101635.72;1691933;85;21287;-56
2021/03/13 05:59:38;;;;;;;10.95;5.15;;;;;;;-2.49;53.71;101619.54;1690562;85;21786;-55
2021/03/13 06:02:11;;;;;;;12.03;3.85;;;;;;;-2.49;54.16;101612.70;1692136;85;21215;-56
2021/03/13 06:04:45;;;;;;;6.80;3.58;;;;;;;-2.42;53.75;101608.33;1692374;85;21192;-56
2021/03/13 06:07:25;;;;;;;15.08;7.03;;;;;;;-2.38;53.49;101592.02;1691961;85;21200;-56
2021/03/13 06:09:58;;;;;;;9.33;4.67;;;;;;;-2.34;53.57;101597.08;1691114;85;21344;-56
2021/03/13 06:12:31;;;;;;;14.73;5.47;;;;;;;-2.16;52.94;101597.25;1691054;85;21232;-57
2021/03/13 06:15:05;;;;;;;15.98;4.30;;;;;;;-2.08;52.69;101610.81;1691330;85;21362;-57
2021/03/13 06:17:57;;;;;;;;;;;;;;;-2.09;52.60;101603.55;1683842;85;21277;-58
2021/03/13 06:20:35;;;;;;;11.03;5.40;;;;;;;-2.08;52.78;101613.37;1699389;82;20169;-55
2021/03/13 06:23:14;;;;;;;7.25;3.90;;;;;;;-2.00;53.01;101611.95;1711114;84;21152;-55
2021/03/13 06:25:48;;;;;;;60.80;7.70;;;;;;;-1.84;52.75;101605.26;1711798;84;21999;-56
2021/03/13 06:28:22;;;;;;;20.62;5.65;;;;;;;-1.55;52.51;101606.05;1712295;84;21179;-56
2021/03/13 06:31:00;;;;;;;9.98;5.50;;;;;;;-1.29;51.60;101596.17;1682748;84;21302;-55
2021/03/13 06:33:34;;;;;;;28.80;10.30;;;;;;;-1.05;51.08;101594.84;1709168;84;21179;-57
2021/03/13 06:36:11;;;;;;;28.75;9.68;;;;;;;-0.71;50.91;101595.39;1710865;84;21187;-56
2021/03/13 06:38:44;;;;;;;15.35;5.62;;;;;;;-0.35;49.72;101580.87;1708383;84;21167;-56
2021/03/13 06:41:24;;;;;;;30.50;5.97;;;;;;;-0.15;48.79;101593.28;1695099;83;21219;-56
2021/03/13 06:43:58;;;;;;;21.52;8.53;;;;;;;-0.13;48.33;101594.08;1689420;84;21737;-56
2021/03/13 06:46:34;;;;;;;23.62;8.60;;;;;;;-0.11;48.04;101594.89;1686879;85;21255;-57
2021/03/13 06:49:08;;;;;;;21.60;4.08;;;;;;;-0.14;47.64;101599.66;1684627;84;21651;-57
2021/03/13 06:51:41;;;;;;;19.70;5.20;;;;;;;-0.25;48.00;101600.37;1695633;84;21298;-57
2021/03/13 06:54:16;;;;;;;15.55;6.75;;;;;;;-0.25;48.36;101592.64;1686079;83;21205;-56
2021/03/13 06:57:00;;;;;;;11.08;5.75;;;;;;;-0.20;48.63;101588.67;1674581;85;21279;-56
2021/03/13 06:59:37;;;;;;;12.28;4.95;;;;;;;-0.06;48.40;101587.91;1679078;84;21346;-56
2021/03/13 07:02:12;;;;;;;15.83;5.28;;;;;;;-0.01;48.17;101594.64;1685439;85;21277;-56
2021/03/13 07:04:45;;;;;;;11.38;4.80;;;;;;;-0.01;48.05;101606.23;1683929;85;21232;-57
2021/03/13 07:07:30;;;;;;;39.58;8.18;;;;;;;-0.08;48.01;101598.25;1684446;85;21366;-56
2021/03/13 07:10:07;;;;;;;59.40;9.50;;;;;;;-0.16;48.30;101594.14;1684332;85;21240;-57
2021/03/13 07:12:43;;;;;;;10.43;5.15;;;;;;;-0.10;48.07;101591.01;1683881;85;21323;-57
2021/03/13 07:15:21;;;;;;;13.75;6.92;;;;;;;0.06;47.73;101593.20;1676119;84;21212;-56
2021/03/13 07:17:56;;;;;;;19.32;7.12;;;;;;;0.05;47.54;101600.06;1656454;86;21633;-56
2021/03/13 07:20:31;;;;;;;10.80;5.20;;;;;;;-0.01;48.10;101579.20;1656174;86;21214;-55
2021/03/13 07:23:05;;;;;;;15.60;3.55;;;;;;;0.11;48.40;101567.75;1627472;86;21213;-56
2021/03/13 07:25:39;;;;;;;8.60;3.30;;;;;;;0.31;47.70;101580.13;1679002;85;21332;-55
2021/03/13 07:28:12;;;;;;;5.83;2.70;;;;;;;0.35;47.08;101563.70;1684149;85;21320;-56
2021/03/13 07:30:45;;;;;;;12.57;4.47;;;;;;;0.24;47.06;101572.97;1655770;85;21743;-56
2021/03/13 07:33:18;;;;;;;13.35;4.58;;;;;;;0.16;47.56;101568.91;1684058;85;21327;-55
2021/03/13 07:35:52;;;;;;;11.28;4.75;;;;;;;0.12;47.71;101560.41;1684293;85;21475;-55
2021/03/13 07:38:25;;;;;;;15.50;5.35;;;;;;;0.14;47.88;101571.55;1684151;85;21463;-56
2021/03/13 07:40:58;;;;;;;10.38;5.10;;;;;;;0.20;48.15;101568.80;1684141;85;21604;-55
2021/03/13 07:43:31;;;;;;;10.32;4.58;;;;;;;0.21;48.00;101560.63;1681911;84;21185;-55
2021/03/13 07:46:04;;;;;;;12.00;3.90;;;;;;;0.25;48.63;101554.08;1675000;84;21299;-55
2021/03/13 07:48:39;;;;;;;9.00;4.17;;;;;;;0.31;47.79;101560.81;1678034;85;21223;-56
2021/03/13 07:51:12;;;;;;;9.73;3.45;;;;;;;0.15;47.79;101532.02;1683590;85;21344;-55
2021/03/13 07:53:45;;;;;;;6.95;3.80;;;;;;;0.00;48.36;101524.70;1652700;84;21370;-55
2021/03/13 07:56:18;;;;;;;15.38;4.35;;;;;;;-0.11;48.68;101533.11;1681009;85;21247;-55
2021/03/13 07:58:51;;;;;;;13.67;3.30;;;;;;;-0.18;49.17;101526.42;1670928;85;21208;-55
2021/03/13 08:01:52;;;;;;;7.30;3.07;;;;;;;-0.14;49.29;101519.88;1682639;85;21529;-56
2021/03/13 08:04:48;;;;;;;10.40;3.47;;;;;;;-0.22;49.67;101532.54;1682920;85;21239;-57
2021/03/13 08:07:21;;;;;;;7.17;4.17;;;;;;;-0.29;50.09;101531.00;1681300;85;21327;-57
2021/03/13 08:09:55;;;;;;;21.87;13.45;;;;;;;-0.30;50.28;101546.88;1682182;85;21354;-55
2021/03/13 08:12:44;;;;;;;13.72;7.87;;;;;;;-0.36;50.37;101523.03;1682474;85;21374;-55
2021/03/13 08:15:34;;;;;;;10.05;5.15;;;;;;;-0.38;50.79;101530.76;1679556;84;21181;-57
2021/03/13 08:18:12;;;;;;;8.10;3.75;;;;;;;-0.36;51.07;101521.27;1661704;85;21515;-57
2021/03/13 08:20:45;;;;;;;11.33;4.40;;;;;;;-0.36;51.10;101507.13;1658075;85;22045;-56
2021/03/13 08:23:19;;;;;;;8.77;3.53;;;;;;;-0.41;51.24;101513.28;1680765;85;21355;-56
2021/03/13 08:26:00;;;;;;;11.97;4.22;;;;;;;-0.48;51.45;101514.31;1680175;85;21394;-55
2021/03/13 08:28:55;;;;;;;9.95;3.98;;;;;;;-0.52;51.76;101523.81;1679500;85;21315;-57
2021/03/13 08:31:34;;;;;;;16.97;6.87;;;;;;;-0.59;52.00;101507.27;1680124;85;21331;-55
2021/03/13 08:34:19;;;;;;;10.58;4.53;;;;;;;-0.58;52.89;101502.54;1680787;85;21208;-55
2021/03/13 08:36:53;;;;;;;9.23;4.55;;;;;;;-0.44;52.80;101499.20;1679865;85;21189;-56
2021/03/13 08:39:31;;;;;;;11.22;4.58;;;;;;;-0.35;52.80;101496.39;1672674;84;21328;-57
2021/03/13 08:42:05;;;;;;;9.40;4.03;;;;;;;-0.27;52.58;101490.20;1672006;85;21491;-58
2021/03/13 08:44:38;;;;;;;;;;;;;;;-0.28;52.49;101492.36;1679303;84;21272;-57
2021/03/13 08:47:15;;;;;;;16.52;5.60;;;;;;;-0.31;52.54;101497.56;1682796;84;20276;-56
2021/03/13 08:49:49;;;;;;;9.70;4.55;;;;;;;-0.32;52.93;101475.31;1675011;84;22150;-57
2021/03/13 08:52:24;;;;;;;7.62;4.00;;;;;;;-0.25;53.03;101486.28;1672638;84;21261;-57
2021/03/13 08:54:57;;;;;;;10.40;5.67;;;;;;;-0.23;52.95;101496.95;1679941;85;21263;-56
2021/03/13 08:57:37;;;;;;;7.30;3.52;;;;;;;-0.21;53.44;101487.89;1678841;85;21253;-55
2021/03/13 09:00:11;;;;;;;11.00;4.37;;;;;;;-0.09;53.26;101497.87;1668066;84;22141;-57
2021/03/13 09:02:47;;;;;;;11.63;4.80;;;;;;;-0.10;53.32;101483.34;1663858;86;21511;-56
2021/03/13 09:05:24;;;;;;;7.55;4.05;;;;;;;-0.04;53.33;101479.30;1678065;84;21671;-57
2021/03/13 09:07:58;;;;;;;6.47;3.85;;;;;;;0.03;53.33;101489.84;1655001;86;21230;-57
2021/03/13 09:10:31;;;;;;;14.40;4.50;;;;;;;0.06;53.41;101518.09;1652950;85;21313;-58
2021/03/13 09:13:04;;;;;;;11.40;4.33;;;;;;;0.08;53.66;101502.59;1681981;85;21184;-57
2021/03/13 09:15:37;;;;;;;9.13;4.37;;;;;;;0.25;53.75;101481.96;1681950;85;21352;-58
2021/03/13 09:18:14;;;;;;;16.73;5.47;;;;;;;0.25;53.75;101481.96;1682369;85;21332;-58
2021/03/13 09:20:48;;;;;;;24.72;10.45;;;;;;;0.42;53.39;101473.34;1655015;86;21241;-57
2021/03/13 09:23:21;;;;;;;13.40;6.57;;;;;;;0.55;53.82;101478.53;1655403;86;21316;-58
2021/03/13 09:25:54;;;;;;;32.90;6.37;;;;;;;0.81;53.50;101482.11;1682654;85;21830;-57
2021/03/13 09:28:27;;;;;;;8.88;4.67;;;;;;;0.95;53.21;101476.95;1682307;85;21777;-57
2021/03/13 09:31:00;;;;;;;22.13;5.03;;;;;;;1.05;53.15;101473.17;1680878;85;21474;-55
2021/03/13 09:33:33;;;;;;;14.47;4.97;;;;;;;1.06;53.05;101472.74;1652598;85;21617;-57
2021/03/13 09:36:12;;;;;;;;;;;;;;;0.93;53.32;101464.99;1684427;85;22052;-57
2021/03/13 09:38:59;;;;;;;16.67;6.45;;;;;;;0.90;54.06;101466.36;1681872;84;20301;-57
2021/03/13 09:41:32;;;;;;;8.70;4.85;;;;;;;0.92;54.25;101465.87;1682790;85;21279;-57
2021/03/13 09:44:06;;;;;;;12.10;5.53;;;;;;;0.88;55.14;101471.58;1677047;84;21821;-54
2021/03/13 09:46:40;;;;;;;14.93;6.50;;;;;;;0.77;55.66;101478.77;1663795;86;21229;-59
2021/03/13 09:49:13;;;;;;;13.22;6.40;;;;;;;0.61;56.58;101473.66;1664467;84;21335;-56
2021/03/13 09:51:52;;;;;;;15.38;5.90;;;;;;;0.53;57.34;101481.59;1644715;86;21402;-57
2021/03/13 09:54:25;;;;;;;11.12;5.87;;;;;;;0.56;58.11;101484.53;1640175;86;21854;-57
2021/03/13 09:56:58;;;;;;;10.63;5.12;;;;;;;0.58;57.74;101486.62;1656889;86;21414;-55
2021/03/13 09:59:31;;;;;;;11.80;4.95;;;;;;;0.51;57.14;101479.52;1670137;84;21319;-56
2021/03/13 10:02:04;;;;;;;11.25;5.55;;;;;;;0.39;57.69;101474.70;1677332;85;21347;-57
2021/03/13 10:04:38;;;;;;;15.93;5.20;;;;;;;0.30;58.25;101474.95;1667035;85;21345;-55
2021/03/13 10:07:12;;;;;;;14.00;5.30;;;;;;;0.28;58.39;101473.31;1667547;86;21207;-56
2021/03/13 10:09:58;;;;;;;9.53;4.90;;;;;;;0.19;58.31;101467.95;1644684;84;21194;-56
2021/03/13 10:12:43;;;;;;;8.73;4.97;;;;;;;0.17;58.91;101468.91;1675306;85;21341;-55
2021/03/13 10:15:30;;;;;;;16.35;7.60;;;;;;;0.17;58.58;101477.45;1681722;85;21397;-56
2021/03/13 10:18:12;;;;;;;19.95;9.58;;;;;;;0.08;58.53;101470.41;1681447;85;22104;-56
2021/03/13 10:20:53;;;;;;;12.93;5.80;;;;;;;-0.02;58.81;101460.80;1681687;85;22179;-59
2021/03/13 10:23:35;;;;;;;13.45;5.87;;;;;;;-0.07;59.09;101463.50;1686287;85;21793;-57
2021/03/13 10:26:15;;;;;;;13.48;6.53;;;;;;;-0.07;59.32;101449.77;1686365;85;21309;-58
2021/03/13 10:28:49;;;;;;;16.90;6.33;;;;;;;-0.08;59.48;101458.40;1684429;85;21498;-56
2021/03/13 10:31:30;;;;;;;16.40;6.33;;;;;;;-0.11;59.51;101458.47;1682543;85;21309;-56
2021/03/13 10:34:06;;;;;;;65.70;23.75;;;;;;;-0.17;59.67;101457.36;1682433;85;21667;-56
2021/03/13 10:36:45;;;;;;;32.85;14.15;;;;;;;-0.24;59.85;101446.35;1655955;85;21361;-57
2021/03/13 10:39:18;;;;;;;29.72;13.13;;;;;;;-0.19;60.28;101438.08;1685946;85;21227;-56
2021/03/13 10:42:00;;;;;;;59.85;22.67;;;;;;;-0.09;60.43;101444.67;1686398;85;21361;-56
2021/03/13 10:44:33;;;;;;;21.30;9.13;;;;;;;-0.01;60.15;101433.75;1685254;85;21309;-56
2021/03/13 10:47:06;;;;;;;30.77;12.70;;;;;;;0.03;59.84;101420.34;1686393;85;21353;-56
2021/03/13 10:49:39;;;;;;;19.50;9.40;;;;;;;0.00;59.87;101421.26;1686271;85;21313;-57
2021/03/13 10:52:12;;;;;;;28.90;12.03;;;;;;;-0.03;60.06;101429.09;1682609;85;21400;-57
2021/03/13 10:54:50;;;;;;;;;;;;;;;-0.05;60.28;101424.86;1679817;85;21194;-56
2021/03/13 10:57:24;;;;;;;40.52;17.57;;;;;;;-0.06;60.69;101419.30;1650300;85;20808;-56
2021/03/13 10:59:57;;;;;;;51.28;21.20;;;;;;;-0.07;61.03;101425.32;1683935;85;22028;-56
2021/03/13 11:02:30;;;;;;;33.90;14.03;;;;;;;-0.07;61.39;101432.61;1684800;85;21607;-57
2021/03/13 11:05:05;;;;;;;48.20;17.60;;;;;;;-0.08;61.18;101433.52;1684113;85;21297;-57
2021/03/13 11:07:37;;;;;;;43.92;17.42;;;;;;;-0.11;61.47;101423.72;1685638;85;21281;-56
2021/03/13 11:10:12;;;;;;;34.92;15.50;;;;;;;-0.14;61.87;101427.66;1683935;85;21709;-56
2021/03/13 11:12:45;;;;;;;32.38;11.75;;;;;;;-0.13;62.20;101416.05;1684634;85;21344;-55
2021/03/13 11:15:19;;;;;;;35.60;12.53;;;;;;;-0.11;62.74;101411.70;1682529;85;21341;-56
2021/03/13 11:17:52;;;;;;;35.13;12.50;;;;;;;-0.15;62.87;101407.97;1683254;85;21528;-56
2021/03/13 11:20:26;;;;;;;44.48;15.20;;;;;;;-0.18;63.52;101406.76;1682841;85;21336;-56
2021/03/13 11:22:59;;;;;;;21.77;7.47;;;;;;;-0.18;63.83;101400.33;1682414;85;21403;-55
2021/03/13 11:25:32;;;;;;;24.98;12.45;;;;;;;-0.14;64.00;101406.63;1681925;85;21349;-55
2021/03/13 11:28:08;;;;;;;15.32;6.90;;;;;;;-0.16;64.17;101397.26;1684933;85;21373;-55
2021/03/13 11:30:41;;;;;;;12.30;7.33;;;;;;;-0.17;64.47;101393.02;1685939;85;21348;-57
2021/03/13 11:33:15;;;;;;;14.83;8.30;;;;;;;-0.16;64.57;101388.25;1686299;85;21226;-55
2021/03/13 11:35:48;;;;;;;18.65;9.30;;;;;;;-0.16;64.67;101398.11;1685117;85;21357;-55
2021/03/13 11:38:26;;;;;;;21.48;10.32;;;;;;;-0.15;64.37;101387.38;1681798;85;21218;-56
2021/03/13 11:41:04;;;;;;;40.88;15.95;;;;;;;-0.15;64.63;101382.23;1683387;85;21603;-56
2021/03/13 11:43:39;;;;;;;21.95;9.33;;;;;;;-0.14;64.46;101374.45;1684210;85;21289;-57
2021/03/13 11:46:13;;;;;;;12.82;6.72;;;;;;;-0.14;64.68;101393.77;1685246;85;21864;-56
2021/03/13 11:48:47;;;;;;;13.32;6.90;;;;;;;-0.15;64.67;101377.09;1685123;85;21348;-56
2021/03/13 11:51:22;;;;;;;14.45;8.40;;;;;;;-0.19;64.85;101375.02;1686186;85;21811;-56
2021/03/13 11:53:55;;;;;;;16.40;7.90;;;;;;;-0.22;64.79;101372.98;1685448;85;21285;-56
2021/03/13 11:56:28;;;;;;;17.25;8.40;;;;;;;-0.24;64.99;101372.19;1685151;85;21318;-57
2021/03/13 11:59:02;;;;;;;14.18;6.35;;;;;;;-0.24;65.20;101375.59;1682697;85;21362;-56
2021/03/13 12:01:34;;;;;;;14.53;7.07;;;;;;;-0.23;65.18;101381.14;1662104;86;21794;-56
2021/03/13 12:04:08;;;;;;;;;;;;;;;-0.25;65.27;101373.06;1665583;86;21987;-56